sensor_id;sensor_type;location;lat;lon;timestamp;P1;durP1;ratioP1;P2;durP2;ratioP2
43527;SDS011;52359;42.658;23.320;2023-05-07T06:41:40;11.02;;;6.95;;
43527;SDS011;52359;42.658;23.320;2023-05-07T06:44:07;14.23;;;7.93;;
43527;SDS011;52359;42.658;23.320;2023-05-07T06:46:33;10.77;;;7.93;;
43527;SDS011;52359;42.658;23.320;2023-05-07T06:48:59;15.60;;;7.50;;
43527;SDS011;52359;42.658;23.320;2023-05-07T06:51:25;8.88;;;6.35;;
43527;SDS011;52359;42.658;23.320;2023-05-07T06:53:51;9.30;;;7.10;;
43527;SDS011;52359;42.658;23.320;2023-05-07T06:56:17;11.93;;;7.40;;
43527;SDS011;52359;42.658;23.320;2023-05-07T06:58:43;11.45;;;7.40;;
43527;SDS011;52359;42.658;23.320;2023-05-07T07:01:09;13.50;;;7.40;;
43527;SDS011;52359;42.658;23.320;2023-05-07T07:03:35;11.68;;;6.97;;
43527;SDS011;52359;42.658;23.320;2023-05-07T07:06:01;11.07;;;7.25;;
43527;SDS011;52359;42.658;23.320;2023-05-07T07:08:28;14.13;;;7.90;;
43527;SDS011;52359;42.658;23.320;2023-05-07T07:10:54;15.70;;;8.50;;
43527;SDS011;52359;42.658;23.320;2023-05-07T07:13:20;11.05;;;8.45;;
43527;SDS011;52359;42.658;23.320;2023-05-07T07:15:46;10.98;;;8.23;;
43527;SDS011;52359;42.658;23.320;2023-05-07T07:18:12;12.38;;;7.95;;
43527;SDS011;52359;42.658;23.320;2023-05-07T07:20:38;13.60;;;9.18;;
43527;SDS011;52359;42.658;23.320;2023-05-07T07:23:04;12.40;;;8.00;;
43527;SDS011;52359;42.658;23.320;2023-05-07T07:25:30;15.70;;;8.55;;
43527;SDS011;52359;42.658;23.320;2023-05-07T07:27:56;16.67;;;9.15;;
43527;SDS011;52359;42.658;23.320;2023-05-07T07:30:22;11.35;;;8.27;;
43527;SDS011;52359;42.658;23.320;2023-05-07T07:32:48;10.68;;;7.72;;
43527;SDS011;52359;42.658;23.320;2023-05-07T07:35:14;14.57;;;8.40;;
43527;SDS011;52359;42.658;23.320;2023-05-07T07:37:41;15.57;;;9.60;;
43527;SDS011;52359;42.658;23.320;2023-05-07T07:40:07;20.67;;;9.18;;
43527;SDS011;52359;42.658;23.320;2023-05-07T07:42:33;17.48;;;8.90;;
43527;SDS011;52359;42.658;23.320;2023-05-07T07:44:59;12.00;;;8.52;;
43527;SDS011;52359;42.658;23.320;2023-05-07T07:47:25;12.20;;;7.55;;
43527;SDS011;52359;42.658;23.320;2023-05-07T07:49:51;11.75;;;7.63;;
43527;SDS011;52359;42.658;23.320;2023-05-07T07:52:17;14.43;;;7.38;;
43527;SDS011;52359;42.658;23.320;2023-05-07T07:54:44;11.32;;;7.93;;
43527;SDS011;52359;42.658;23.320;2023-05-07T07:57:10;11.88;;;7.93;;
43527;SDS011;52359;42.658;23.320;2023-05-07T07:59:36;15.15;;;7.65;;
43527;SDS011;52359;42.658;23.320;2023-05-07T08:02:02;8.77;;;6.82;;
43527;SDS011;52359;42.658;23.320;2023-05-07T08:04:28;10.65;;;7.38;;
43527;SDS011;52359;42.658;23.320;2023-05-07T08:06:55;7.78;;;6.95;;
43527;SDS011;52359;42.658;23.320;2023-05-07T08:09:21;13.95;;;7.28;;
43527;SDS011;52359;42.658;23.320;2023-05-07T08:11:47;9.32;;;7.13;;
43527;SDS011;52359;42.658;23.320;2023-05-07T08:14:13;11.48;;;6.50;;
43527;SDS011;52359;42.658;23.320;2023-05-07T08:16:40;9.57;;;7.32;;
43527;SDS011;52359;42.658;23.320;2023-05-07T08:19:06;10.13;;;6.80;;
43527;SDS011;52359;42.658;23.320;2023-05-07T08:21:34;13.40;;;7.22;;
43527;SDS011;52359;42.658;23.320;2023-05-07T08:24:00;12.48;;;7.53;;
43527;SDS011;52359;42.658;23.320;2023-05-07T08:26:26;10.48;;;6.72;;
43527;SDS011;52359;42.658;23.320;2023-05-07T08:28:52;11.45;;;6.78;;
43527;SDS011;52359;42.658;23.320;2023-05-07T08:31:18;9.88;;;6.30;;
43527;SDS011;52359;42.658;23.320;2023-05-07T08:33:44;10.73;;;5.63;;
43527;SDS011;52359;42.658;23.320;2023-05-07T08:36:10;12.50;;;5.72;;
43527;SDS011;52359;42.658;23.320;2023-05-07T08:38:36;10.02;;;6.93;;
43527;SDS011;52359;42.658;23.320;2023-05-07T08:41:02;9.70;;;5.78;;
43527;SDS011;52359;42.658;23.320;2023-05-07T08:43:28;12.27;;;6.03;;
43527;SDS011;52359;42.658;23.320;2023-05-07T08:45:54;9.18;;;4.72;;
43527;SDS011;52359;42.658;23.320;2023-05-07T08:48:21;3.80;;;3.50;;
43527;SDS011;52359;42.658;23.320;2023-05-07T08:50:47;5.95;;;4.28;;
43527;SDS011;52359;42.658;23.320;2023-05-07T08:53:13;7.57;;;5.28;;
43527;SDS011;52359;42.658;23.320;2023-05-07T08:55:40;8.93;;;4.90;;
43527;SDS011;52359;42.658;23.320;2023-05-07T08:58:06;8.40;;;5.07;;
43527;SDS011;52359;42.658;23.320;2023-05-07T09:00:32;6.55;;;4.88;;
43527;SDS011;52359;42.658;23.320;2023-05-07T09:02:59;10.25;;;5.43;;
43527;SDS011;52359;42.658;23.320;2023-05-07T09:05:26;6.30;;;5.38;;
43527;SDS011;52359;42.658;23.320;2023-05-07T09:07:52;9.55;;;5.20;;
43527;SDS011;52359;42.658;23.320;2023-05-07T09:10:20;11.38;;;5.35;;
43527;SDS011;52359;42.658;23.320;2023-05-07T09:12:46;9.18;;;5.53;;
43527;SDS011;52359;42.658;23.320;2023-05-07T09:15:13;8.90;;;5.78;;
43527;SDS011;52359;42.658;23.320;2023-05-07T09:17:39;9.20;;;5.00;;
43527;SDS011;52359;42.658;23.320;2023-05-07T09:20:07;7.78;;;5.38;;
43527;SDS011;52359;42.658;23.320;2023-05-07T09:22:33;11.15;;;5.18;;
43527;SDS011;52359;42.658;23.320;2023-05-07T09:25:00;6.85;;;5.00;;
43527;SDS011;52359;42.658;23.320;2023-05-07T09:27:26;6.43;;;4.88;;
43527;SDS011;52359;42.658;23.320;2023-05-07T09:29:52;8.07;;;5.72;;
43527;SDS011;52359;42.658;23.320;2023-05-07T09:32:18;9.48;;;5.75;;
43527;SDS011;52359;42.658;23.320;2023-05-07T09:34:44;7.20;;;6.00;;
43527;SDS011;52359;42.658;23.320;2023-05-07T09:37:10;14.40;;;5.47;;
43527;SDS011;52359;42.658;23.320;2023-05-07T09:39:47;5.32;;;4.82;;
43527;SDS011;52359;42.658;23.320;2023-05-07T09:42:13;8.77;;;4.75;;
43527;SDS011;52359;42.658;23.320;2023-05-07T09:44:45;6.43;;;4.88;;
43527;SDS011;52359;42.658;23.320;2023-05-07T09:47:12;5.53;;;4.18;;
43527;SDS011;52359;42.658;23.320;2023-05-07T09:49:40;8.82;;;4.15;;
43527;SDS011;52359;42.658;23.320;2023-05-07T09:52:07;7.88;;;4.03;;
43527;SDS011;52359;42.658;23.320;2023-05-07T09:54:36;11.13;;;3.95;;
43527;SDS011;52359;42.658;23.320;2023-05-07T09:57:07;6.90;;;3.67;;
43527;SDS011;52359;42.658;23.320;2023-05-07T09:59:34;8.07;;;4.10;;
43527;SDS011;52359;42.658;23.320;2023-05-07T10:02:02;4.45;;;3.45;;
43527;SDS011;52359;42.658;23.320;2023-05-07T10:04:29;4.45;;;3.13;;
43527;SDS011;52359;42.658;23.320;2023-05-07T10:06:56;4.43;;;3.33;;
43527;SDS011;52359;42.658;23.320;2023-05-07T10:09:22;5.60;;;3.22;;
43527;SDS011;52359;42.658;23.320;2023-05-07T10:11:48;7.13;;;3.38;;
43527;SDS011;52359;42.658;23.320;2023-05-07T10:14:15;5.07;;;3.60;;
43527;SDS011;52359;42.658;23.320;2023-05-07T10:16:41;4.00;;;3.60;;
43527;SDS011;52359;42.658;23.320;2023-05-07T10:19:08;7.80;;;3.53;;
43527;SDS011;52359;42.658;23.320;2023-05-07T10:21:37;3.20;;;2.90;;
43527;SDS011;52359;42.658;23.320;2023-05-07T10:24:05;4.88;;;3.85;;
43527;SDS011;52359;42.658;23.320;2023-05-07T10:26:33;5.35;;;3.33;;
43527;SDS011;52359;42.658;23.320;2023-05-07T10:29:04;5.28;;;3.35;;
43527;SDS011;52359;42.658;23.320;2023-05-07T10:34:16;6.70;;;3.55;;
43527;SDS011;52359;42.658;23.320;2023-05-07T10:36:45;4.18;;;2.97;;
43527;SDS011;52359;42.658;23.320;2023-05-07T10:39:11;6.43;;;3.40;;
43527;SDS011;52359;42.658;23.320;2023-05-07T10:41:38;6.28;;;3.47;;
43527;SDS011;52359;42.658;23.320;2023-05-07T10:44:05;4.53;;;3.20;;
43527;SDS011;52359;42.658;23.320;2023-05-07T10:46:32;7.30;;;3.58;;
43527;SDS011;52359;42.658;23.320;2023-05-07T10:51:31;4.45;;;3.42;;
43527;SDS011;52359;42.658;23.320;2023-05-07T13:01:12;5.05;;;2.83;;
43527;SDS011;52359;42.658;23.320;2023-05-07T13:03:40;8.73;;;3.75;;
43527;SDS011;52359;42.658;23.320;2023-05-07T13:06:09;5.72;;;3.05;;
43527;SDS011;52359;42.658;23.320;2023-05-07T13:08:37;3.63;;;2.55;;
43527;SDS011;52359;42.658;23.320;2023-05-07T13:11:06;2.83;;;2.50;;
43527;SDS011;52359;42.658;23.320;2023-05-07T13:13:33;3.22;;;2.85;;
43527;SDS011;52359;42.658;23.320;2023-05-07T13:15:59;5.28;;;2.38;;
43527;SDS011;52359;42.658;23.320;2023-05-07T13:18:25;4.70;;;2.53;;
43527;SDS011;52359;42.658;23.320;2023-05-07T13:20:52;4.07;;;3.00;;
43527;SDS011;52359;42.658;23.320;2023-05-07T13:23:18;13.50;;;2.67;;
43527;SDS011;52359;42.658;23.320;2023-05-07T13:25:44;6.82;;;2.75;;
43527;SDS011;52359;42.658;23.320;2023-05-07T13:28:10;4.32;;;2.85;;
43527;SDS011;52359;42.658;23.320;2023-05-07T13:30:37;6.90;;;2.38;;
43527;SDS011;52359;42.658;23.320;2023-05-07T13:33:03;4.25;;;2.88;;
43527;SDS011;52359;42.658;23.320;2023-05-07T13:35:29;3.35;;;2.50;;
43527;SDS011;52359;42.658;23.320;2023-05-07T13:37:55;2.50;;;2.30;;
43527;SDS011;52359;42.658;23.320;2023-05-07T13:40:22;4.05;;;2.80;;
43527;SDS011;52359;42.658;23.320;2023-05-07T13:42:48;3.38;;;2.50;;
43527;SDS011;52359;42.658;23.320;2023-05-07T13:45:15;3.55;;;2.50;;
43527;SDS011;52359;42.658;23.320;2023-05-07T13:47:41;3.00;;;2.70;;
43527;SDS011;52359;42.658;23.320;2023-05-07T13:50:08;5.03;;;2.35;;
43527;SDS011;52359;42.658;23.320;2023-05-07T13:52:34;3.63;;;2.50;;
43527;SDS011;52359;42.658;23.320;2023-05-07T13:55:00;3.63;;;2.90;;
43527;SDS011;52359;42.658;23.320;2023-05-07T13:57:26;3.67;;;2.45;;
43527;SDS011;52359;42.658;23.320;2023-05-07T13:59:52;2.95;;;2.67;;
43527;SDS011;52359;42.658;23.320;2023-05-07T14:02:18;2.05;;;1.95;;
43527;SDS011;52359;42.658;23.320;2023-05-07T14:04:44;3.55;;;2.35;;
43527;SDS011;52359;42.658;23.320;2023-05-07T14:07:10;5.20;;;2.50;;
43527;SDS011;52359;42.658;23.320;2023-05-07T14:09:36;4.80;;;2.78;;
43527;SDS011;52359;42.658;23.320;2023-05-07T14:12:02;3.42;;;3.15;;
43527;SDS011;52359;42.658;23.320;2023-05-07T14:14:28;4.40;;;3.20;;
43527;SDS011;52359;42.658;23.320;2023-05-07T14:16:54;3.80;;;2.65;;
43527;SDS011;52359;42.658;23.320;2023-05-07T14:19:20;4.80;;;2.92;;
43527;SDS011;52359;42.658;23.320;2023-05-07T14:21:47;3.00;;;2.80;;
43527;SDS011;52359;42.658;23.320;2023-05-07T14:24:13;5.53;;;2.60;;
43527;SDS011;52359;42.658;23.320;2023-05-07T14:26:40;7.43;;;2.97;;
43527;SDS011;52359;42.658;23.320;2023-05-07T14:29:06;10.95;;;3.58;;
43527;SDS011;52359;42.658;23.320;2023-05-07T14:31:32;2.65;;;2.40;;
43527;SDS011;52359;42.658;23.320;2023-05-07T14:33:58;2.60;;;2.17;;
43527;SDS011;52359;42.658;23.320;2023-05-07T14:36:24;5.80;;;2.65;;
43527;SDS011;52359;42.658;23.320;2023-05-07T14:38:55;3.08;;;2.80;;
43527;SDS011;52359;42.658;23.320;2023-05-07T14:41:24;4.15;;;2.70;;
43527;SDS011;52359;42.658;23.320;2023-05-07T14:43:50;3.60;;;2.78;;
43527;SDS011;52359;42.658;23.320;2023-05-07T14:46:19;7.95;;;2.65;;
43527;SDS011;52359;42.658;23.320;2023-05-07T14:48:45;2.70;;;2.50;;
43527;SDS011;52359;42.658;23.320;2023-05-07T14:51:11;5.00;;;2.70;;
43527;SDS011;52359;42.658;23.320;2023-05-07T14:53:38;2.67;;;2.28;;
43527;SDS011;52359;42.658;23.320;2023-05-07T14:56:04;4.15;;;2.60;;
43527;SDS011;52359;42.658;23.320;2023-05-07T14:58:30;8.18;;;2.58;;
43527;SDS011;52359;42.658;23.320;2023-05-07T15:00:56;6.45;;;2.75;;
43527;SDS011;52359;42.658;23.320;2023-05-07T15:03:22;4.32;;;2.63;;
43527;SDS011;52359;42.658;23.320;2023-05-07T15:05:48;2.60;;;2.38;;
43527;SDS011;52359;42.658;23.320;2023-05-07T15:08:16;2.50;;;2.30;;
43527;SDS011;52359;42.658;23.320;2023-05-07T15:10:42;4.07;;;2.63;;
43527;SDS011;52359;42.658;23.320;2023-05-07T15:13:11;5.53;;;2.40;;
43527;SDS011;52359;42.658;23.320;2023-05-07T15:15:41;3.42;;;2.50;;
43527;SDS011;52359;42.658;23.320;2023-05-07T15:18:07;3.00;;;2.70;;
43527;SDS011;52359;42.658;23.320;2023-05-07T15:20:33;4.25;;;3.10;;
43527;SDS011;52359;42.658;23.320;2023-05-07T15:22:59;4.88;;;3.30;;
43527;SDS011;52359;42.658;23.320;2023-05-07T15:25:25;4.78;;;2.70;;
43527;SDS011;52359;42.658;23.320;2023-05-07T15:27:51;2.63;;;2.22;;
43527;SDS011;52359;42.658;23.320;2023-05-07T15:30:17;4.07;;;2.97;;
43527;SDS011;52359;42.658;23.320;2023-05-07T15:32:45;4.65;;;2.47;;
43527;SDS011;52359;42.658;23.320;2023-05-07T15:35:12;3.38;;;2.30;;
43527;SDS011;52359;42.658;23.320;2023-05-07T15:37:38;4.63;;;2.80;;
43527;SDS011;52359;42.658;23.320;2023-05-07T15:40:04;8.02;;;2.60;;
43527;SDS011;52359;42.658;23.320;2023-05-07T15:42:32;2.65;;;2.40;;
43527;SDS011;52359;42.658;23.320;2023-05-07T15:44:58;2.58;;;2.42;;
43527;SDS011;52359;42.658;23.320;2023-05-07T15:47:25;3.95;;;2.50;;
43527;SDS011;52359;42.658;23.320;2023-05-07T15:49:51;6.70;;;2.83;;
43527;SDS011;52359;42.658;23.320;2023-05-07T15:52:17;6.65;;;2.88;;
43527;SDS011;52359;42.658;23.320;2023-05-07T15:54:43;4.03;;;2.53;;
43527;SDS011;52359;42.658;23.320;2023-05-07T15:57:09;3.13;;;2.78;;
43527;SDS011;52359;42.658;23.320;2023-05-07T15:59:36;4.20;;;2.28;;
43527;SDS011;52359;42.658;23.320;2023-05-07T16:02:02;2.28;;;2.08;;
43527;SDS011;52359;42.658;23.320;2023-05-07T16:04:28;9.63;;;3.08;;
43527;SDS011;52359;42.658;23.320;2023-05-07T16:06:55;4.25;;;2.83;;
43527;SDS011;52359;42.658;23.320;2023-05-07T16:09:21;9.05;;;2.90;;
43527;SDS011;52359;42.658;23.320;2023-05-07T16:11:49;3.15;;;2.85;;
43527;SDS011;52359;42.658;23.320;2023-05-07T16:14:15;3.50;;;3.13;;
43527;SDS011;52359;42.658;23.320;2023-05-07T16:16:41;5.03;;;3.08;;
43527;SDS011;52359;42.658;23.320;2023-05-07T16:19:07;4.25;;;2.80;;
43527;SDS011;52359;42.658;23.320;2023-05-07T16:21:33;6.30;;;2.88;;
43527;SDS011;52359;42.658;23.320;2023-05-07T16:24:00;4.82;;;3.58;;
43527;SDS011;52359;42.658;23.320;2023-05-07T16:26:26;10.50;;;2.60;;
43527;SDS011;52359;42.658;23.320;2023-05-07T16:28:52;2.90;;;2.70;;
43527;SDS011;52359;42.658;23.320;2023-05-07T16:31:18;4.40;;;3.30;;
43527;SDS011;52359;42.658;23.320;2023-05-07T16:33:44;3.78;;;2.97;;
43527;SDS011;52359;42.658;23.320;2023-05-07T16:36:10;5.85;;;3.00;;
43527;SDS011;52359;42.658;23.320;2023-05-07T16:38:36;6.07;;;3.30;;
43527;SDS011;52359;42.658;23.320;2023-05-07T16:41:02;5.22;;;2.90;;
43527;SDS011;52359;42.658;23.320;2023-05-07T16:43:31;6.43;;;2.72;;
43527;SDS011;52359;42.658;23.320;2023-05-07T16:45:58;9.48;;;2.85;;
43527;SDS011;52359;42.658;23.320;2023-05-07T16:48:24;7.75;;;3.03;;
43527;SDS011;52359;42.658;23.320;2023-05-07T16:50:50;6.22;;;2.30;;
43527;SDS011;52359;42.658;23.320;2023-05-07T16:53:16;2.65;;;2.45;;
43527;SDS011;52359;42.658;23.320;2023-05-07T16:55:42;4.55;;;3.03;;
43527;SDS011;52359;42.658;23.320;2023-05-07T16:58:09;7.90;;;2.50;;
43527;SDS011;52359;42.658;23.320;2023-05-07T17:00:35;3.00;;;2.78;;
43527;SDS011;52359;42.658;23.320;2023-05-07T17:03:01;5.15;;;2.45;;
43527;SDS011;52359;42.658;23.320;2023-05-07T17:05:28;3.28;;;2.75;;
43527;SDS011;52359;42.658;23.320;2023-05-07T17:07:54;7.45;;;2.70;;
43527;SDS011;52359;42.658;23.320;2023-05-07T17:10:21;3.00;;;2.78;;
43527;SDS011;52359;42.658;23.320;2023-05-07T17:12:47;6.55;;;3.25;;
43527;SDS011;52359;42.658;23.320;2023-05-07T17:15:13;5.55;;;2.90;;
43527;SDS011;52359;42.658;23.320;2023-05-07T17:17:39;6.47;;;3.40;;
43527;SDS011;52359;42.658;23.320;2023-05-07T17:20:06;3.80;;;3.22;;
43527;SDS011;52359;42.658;23.320;2023-05-07T17:22:32;6.68;;;2.65;;
43527;SDS011;52359;42.658;23.320;2023-05-07T17:24:58;7.55;;;2.70;;
43527;SDS011;52359;42.658;23.320;2023-05-07T17:27:25;6.07;;;2.90;;
43527;SDS011;52359;42.658;23.320;2023-05-07T17:29:51;8.82;;;3.65;;
43527;SDS011;52359;42.658;23.320;2023-05-07T17:32:18;3.40;;;3.10;;
43527;SDS011;52359;42.658;23.320;2023-05-07T17:34:44;6.20;;;3.05;;
43527;SDS011;52359;42.658;23.320;2023-05-07T17:37:10;5.93;;;3.13;;
43527;SDS011;52359;42.658;23.320;2023-05-07T17:39:37;3.70;;;3.40;;
43527;SDS011;52359;42.658;23.320;2023-05-07T17:42:03;10.02;;;3.65;;
43527;SDS011;52359;42.658;23.320;2023-05-07T17:44:29;4.22;;;3.53;;
43527;SDS011;52359;42.658;23.320;2023-05-07T17:46:55;8.07;;;3.25;;
43527;SDS011;52359;42.658;23.320;2023-05-07T17:49:21;8.20;;;3.38;;
43527;SDS011;52359;42.658;23.320;2023-05-07T17:51:47;5.82;;;3.10;;
43527;SDS011;52359;42.658;23.320;2023-05-07T17:54:13;6.53;;;3.33;;
43527;SDS011;52359;42.658;23.320;2023-05-07T17:56:39;7.43;;;3.10;;
43527;SDS011;52359;42.658;23.320;2023-05-07T17:59:05;12.80;;;3.75;;
43527;SDS011;52359;42.658;23.320;2023-05-07T18:01:31;7.82;;;4.85;;
43527;SDS011;52359;42.658;23.320;2023-05-07T18:03:58;7.90;;;4.80;;
43527;SDS011;52359;42.658;23.320;2023-05-07T18:06:24;8.63;;;4.47;;
43527;SDS011;52359;42.658;23.320;2023-05-07T18:08:50;14.20;;;4.63;;
43527;SDS011;52359;42.658;23.320;2023-05-07T18:11:18;5.78;;;4.10;;
43527;SDS011;52359;42.658;23.320;2023-05-07T18:13:44;8.63;;;4.13;;
43527;SDS011;52359;42.658;23.320;2023-05-07T18:16:10;8.05;;;4.00;;
43527;SDS011;52359;42.658;23.320;2023-05-07T18:18:36;9.23;;;4.13;;
43527;SDS011;52359;42.658;23.320;2023-05-07T18:21:02;6.20;;;4.22;;
43527;SDS011;52359;42.658;23.320;2023-05-07T18:23:28;9.43;;;4.57;;
43527;SDS011;52359;42.658;23.320;2023-05-07T18:25:54;5.88;;;4.00;;
43527;SDS011;52359;42.658;23.320;2023-05-07T18:28:20;12.82;;;4.25;;
43527;SDS011;52359;42.658;23.320;2023-05-07T18:30:46;11.80;;;5.35;;
43527;SDS011;52359;42.658;23.320;2023-05-07T18:33:12;7.75;;;4.00;;
43527;SDS011;52359;42.658;23.320;2023-05-07T18:35:38;14.07;;;4.63;;
43527;SDS011;52359;42.658;23.320;2023-05-07T18:38:04;11.30;;;4.72;;
43527;SDS011;52359;42.658;23.320;2023-05-07T18:40:30;5.70;;;3.92;;
43527;SDS011;52359;42.658;23.320;2023-05-07T18:42:56;8.85;;;3.63;;
43527;SDS011;52359;42.658;23.320;2023-05-07T18:45:22;7.80;;;3.78;;
43527;SDS011;52359;42.658;23.320;2023-05-07T18:47:48;5.25;;;3.92;;
43527;SDS011;52359;42.658;23.320;2023-05-07T18:50:14;6.70;;;4.28;;
43527;SDS011;52359;42.658;23.320;2023-05-07T18:52:40;5.60;;;4.05;;
43527;SDS011;52359;42.658;23.320;2023-05-07T18:55:06;11.68;;;4.45;;
43527;SDS011;52359;42.658;23.320;2023-05-07T18:57:35;10.30;;;4.72;;
43527;SDS011;52359;42.658;23.320;2023-05-07T19:00:01;8.10;;;4.53;;
43527;SDS011;52359;42.658;23.320;2023-05-07T19:02:27;7.15;;;3.78;;
43527;SDS011;52359;42.658;23.320;2023-05-07T19:04:53;9.05;;;4.60;;
43527;SDS011;52359;42.658;23.320;2023-05-07T19:07:19;10.68;;;5.18;;
43527;SDS011;52359;42.658;23.320;2023-05-07T19:09:45;6.53;;;4.30;;
43527;SDS011;52359;42.658;23.320;2023-05-07T19:12:11;9.93;;;4.47;;
43527;SDS011;52359;42.658;23.320;2023-05-07T19:14:37;5.25;;;3.88;;
43527;SDS011;52359;42.658;23.320;2023-05-07T19:17:06;12.00;;;4.05;;
43527;SDS011;52359;42.658;23.320;2023-05-07T19:19:32;9.85;;;4.00;;
43527;SDS011;52359;42.658;23.320;2023-05-07T19:21:58;9.18;;;3.95;;
43527;SDS011;52359;42.658;23.320;2023-05-07T19:24:24;7.85;;;3.85;;
43527;SDS011;52359;42.658;23.320;2023-05-07T19:26:50;9.18;;;3.65;;
43527;SDS011;52359;42.658;23.320;2023-05-07T19:29:16;6.35;;;4.47;;
43527;SDS011;52359;42.658;23.320;2023-05-07T19:31:42;4.43;;;3.53;;
43527;SDS011;52359;42.658;23.320;2023-05-07T19:34:08;5.38;;;3.63;;
43527;SDS011;52359;42.658;23.320;2023-05-07T19:36:34;10.20;;;4.22;;
43527;SDS011;52359;42.658;23.320;2023-05-07T19:39:02;20.00;;;4.53;;
43527;SDS011;52359;42.658;23.320;2023-05-07T19:41:28;6.22;;;3.95;;
43527;SDS011;52359;42.658;23.320;2023-05-07T19:43:54;7.10;;;4.00;;
43527;SDS011;52359;42.658;23.320;2023-05-07T19:46:20;4.30;;;3.38;;
43527;SDS011;52359;42.658;23.320;2023-05-07T19:48:46;7.97;;;3.88;;
43527;SDS011;52359;42.658;23.320;2023-05-07T19:51:12;3.85;;;3.45;;
43527;SDS011;52359;42.658;23.320;2023-05-07T19:53:38;11.55;;;3.60;;
43527;SDS011;52359;42.658;23.320;2023-05-07T19:56:08;4.93;;;4.05;;
43527;SDS011;52359;42.658;23.320;2023-05-07T19:58:34;9.15;;;3.97;;
43527;SDS011;52359;42.658;23.320;2023-05-07T20:01:01;5.20;;;4.00;;
43527;SDS011;52359;42.658;23.320;2023-05-07T20:03:27;8.20;;;4.50;;
43527;SDS011;52359;42.658;23.320;2023-05-07T20:05:54;8.15;;;4.32;;
43527;SDS011;52359;42.658;23.320;2023-05-07T20:08:20;9.52;;;4.45;;
43527;SDS011;52359;42.658;23.320;2023-05-07T20:10:46;6.88;;;4.32;;
43527;SDS011;52359;42.658;23.320;2023-05-07T20:13:15;7.13;;;3.60;;
43527;SDS011;52359;42.658;23.320;2023-05-07T20:15:41;7.05;;;3.58;;
43527;SDS011;52359;42.658;23.320;2023-05-07T20:18:07;11.05;;;4.00;;
43527;SDS011;52359;42.658;23.320;2023-05-07T20:20:34;6.32;;;3.92;;
43527;SDS011;52359;42.658;23.320;2023-05-07T20:23:00;5.43;;;3.90;;
43527;SDS011;52359;42.658;23.320;2023-05-07T20:25:26;9.30;;;4.53;;
43527;SDS011;52359;42.658;23.320;2023-05-07T20:27:51;9.15;;;3.97;;
43527;SDS011;52359;42.658;23.320;2023-05-07T20:30:18;6.25;;;3.75;;
43527;SDS011;52359;42.658;23.320;2023-05-07T20:32:44;10.50;;;4.70;;
43527;SDS011;52359;42.658;23.320;2023-05-07T20:35:10;8.68;;;4.30;;
43527;SDS011;52359;42.658;23.320;2023-05-07T20:37:37;9.27;;;4.30;;
43527;SDS011;52359;42.658;23.320;2023-05-07T20:40:04;8.95;;;3.40;;
43527;SDS011;52359;42.658;23.320;2023-05-07T20:42:30;4.95;;;3.78;;
43527;SDS011;52359;42.658;23.320;2023-05-07T20:44:56;7.88;;;4.57;;
43527;SDS011;52359;42.658;23.320;2023-05-07T20:47:22;8.35;;;3.78;;
43527;SDS011;52359;42.658;23.320;2023-05-07T20:49:51;7.22;;;3.97;;
43527;SDS011;52359;42.658;23.320;2023-05-07T20:52:17;17.27;;;3.75;;
43527;SDS011;52359;42.658;23.320;2023-05-07T20:54:43;5.35;;;3.53;;
43527;SDS011;52359;42.658;23.320;2023-05-07T20:57:11;6.25;;;3.40;;
43527;SDS011;52359;42.658;23.320;2023-05-07T20:59:38;11.77;;;4.10;;
43527;SDS011;52359;42.658;23.320;2023-05-07T21:02:05;12.43;;;3.75;;
43527;SDS011;52359;42.658;23.320;2023-05-07T21:04:31;6.22;;;3.97;;
43527;SDS011;52359;42.658;23.320;2023-05-07T21:06:58;5.82;;;3.90;;
43527;SDS011;52359;42.658;23.320;2023-05-07T21:09:24;8.55;;;5.18;;
43527;SDS011;52359;42.658;23.320;2023-05-07T21:11:50;5.13;;;3.70;;
43527;SDS011;52359;42.658;23.320;2023-05-07T21:14:16;5.68;;;3.88;;
43527;SDS011;52359;42.658;23.320;2023-05-07T21:16:43;6.35;;;3.50;;
43527;SDS011;52359;42.658;23.320;2023-05-07T21:19:09;8.95;;;3.70;;
43527;SDS011;52359;42.658;23.320;2023-05-07T21:21:35;4.55;;;3.67;;
43527;SDS011;52359;42.658;23.320;2023-05-07T21:24:01;3.55;;;3.10;;
43527;SDS011;52359;42.658;23.320;2023-05-07T21:26:27;5.20;;;3.58;;
43527;SDS011;52359;42.658;23.320;2023-05-07T21:28:53;8.50;;;3.42;;
43527;SDS011;52359;42.658;23.320;2023-05-07T21:31:19;4.45;;;3.17;;
43527;SDS011;52359;42.658;23.320;2023-05-07T21:33:45;6.10;;;3.45;;
43527;SDS011;52359;42.658;23.320;2023-05-07T21:36:11;3.38;;;2.85;;
43527;SDS011;52359;42.658;23.320;2023-05-07T21:38:37;7.18;;;3.08;;
43527;SDS011;52359;42.658;23.320;2023-05-07T21:41:04;7.03;;;3.50;;
43527;SDS011;52359;42.658;23.320;2023-05-07T21:43:30;4.50;;;3.38;;
43527;SDS011;52359;42.658;23.320;2023-05-07T21:45:56;5.45;;;3.00;;
43527;SDS011;52359;42.658;23.320;2023-05-07T21:48:24;4.43;;;3.38;;
43527;SDS011;52359;42.658;23.320;2023-05-07T21:51:01;4.72;;;3.67;;
43527;SDS011;52359;42.658;23.320;2023-05-07T21:53:27;3.45;;;3.00;;
43527;SDS011;52359;42.658;23.320;2023-05-07T21:55:53;6.55;;;3.60;;
43527;SDS011;52359;42.658;23.320;2023-05-07T21:58:19;4.85;;;3.28;;
43527;SDS011;52359;42.658;23.320;2023-05-07T22:00:45;5.13;;;3.33;;
43527;SDS011;52359;42.658;23.320;2023-05-07T22:03:11;4.68;;;3.50;;
43527;SDS011;52359;42.658;23.320;2023-05-07T22:05:38;3.50;;;3.20;;
43527;SDS011;52359;42.658;23.320;2023-05-07T22:08:04;10.45;;;3.63;;
43527;SDS011;52359;42.658;23.320;2023-05-07T22:10:30;7.70;;;3.83;;
43527;SDS011;52359;42.658;23.320;2023-05-07T22:12:56;6.38;;;3.80;;
43527;SDS011;52359;42.658;23.320;2023-05-07T22:15:22;8.27;;;3.30;;
43527;SDS011;52359;42.658;23.320;2023-05-07T22:17:48;4.90;;;3.65;;
43527;SDS011;52359;42.658;23.320;2023-05-07T22:20:14;6.68;;;3.20;;
43527;SDS011;52359;42.658;23.320;2023-05-07T22:22:47;7.18;;;3.08;;
43527;SDS011;52359;42.658;23.320;2023-05-07T22:25:13;6.97;;;3.00;;
43527;SDS011;52359;42.658;23.320;2023-05-07T22:27:40;4.35;;;3.38;;
43527;SDS011;52359;42.658;23.320;2023-05-07T22:30:06;10.07;;;3.30;;
43527;SDS011;52359;42.658;23.320;2023-05-07T22:32:32;8.00;;;3.38;;
43527;SDS011;52359;42.658;23.320;2023-05-07T22:34:58;7.22;;;3.65;;
43527;SDS011;52359;42.658;23.320;2023-05-07T22:37:24;16.00;;;3.70;;
43527;SDS011;52359;42.658;23.320;2023-05-07T22:39:50;11.48;;;4.75;;
43527;SDS011;52359;42.658;23.320;2023-05-07T22:42:16;7.53;;;5.20;;
43527;SDS011;52359;42.658;23.320;2023-05-07T22:44:42;12.18;;;5.05;;
43527;SDS011;52359;42.658;23.320;2023-05-07T22:47:08;17.02;;;5.10;;
43527;SDS011;52359;42.658;23.320;2023-05-07T22:49:34;8.98;;;5.05;;
43527;SDS011;52359;42.658;23.320;2023-05-07T22:52:00;8.35;;;5.65;;
43527;SDS011;52359;42.658;23.320;2023-05-07T22:54:26;10.02;;;4.95;;
43527;SDS011;52359;42.658;23.320;2023-05-07T22:56:52;6.03;;;4.93;;
43527;SDS011;52359;42.658;23.320;2023-05-07T22:59:18;11.57;;;6.60;;
43527;SDS011;52359;42.658;23.320;2023-05-07T23:01:45;10.48;;;4.80;;
43527;SDS011;52359;42.658;23.320;2023-05-07T23:04:12;8.10;;;5.10;;
43527;SDS011;52359;42.658;23.320;2023-05-07T23:06:38;14.80;;;5.50;;
43527;SDS011;52359;42.658;23.320;2023-05-07T23:09:05;8.88;;;5.45;;
43527;SDS011;52359;42.658;23.320;2023-05-07T23:11:32;6.95;;;5.40;;
43527;SDS011;52359;42.658;23.320;2023-05-07T23:13:58;13.13;;;5.90;;
43527;SDS011;52359;42.658;23.320;2023-05-07T23:16:25;9.18;;;5.57;;
43527;SDS011;52359;42.658;23.320;2023-05-07T23:18:52;7.90;;;4.93;;